Time;durP1;ratioP1;P1;durP2;ratioP2;P2;SDS_P1;SDS_P2;PMS_P1;PMS_P2;Temp;Humidity;BMP_temperature;BMP_pressure;BME280_temperature;BME280_humidity;BME280_pressure;Samples;Min_cycle;Max_cycle;Signal;HPM_P1;HPM_P2
2021/09/18 00:00:54;;;;;;;1.65;1.20;;;15.40;99.90;;;;;;4125152;28;20034;-65
2021/09/18 00:02:55;;;;;;;1.50;1.17;;;15.40;99.90;;;;;;4126336;28;20037;-65
2021/09/18 00:04:56;;;;;;;1.30;1.08;;;15.40;99.90;;;;;;4124726;28;20092;-68
2021/09/18 00:06:58;;;;;;;1.17;0.80;;;15.30;99.90;;;;;;4125742;28;20160;-65
2021/09/18 00:08:59;;;;;;;1.33;1.10;;;15.40;99.90;;;;;;4124841;28;20034;-65
2021/09/18 00:11:00;;;;;;;3.13;1.20;;;15.30;99.90;;;;;;4126051;28;20442;-66
2021/09/18 00:13:01;;;;;;;1.58;1.40;;;15.30;99.90;;;;;;4125089;28;20533;-65
2021/09/18 00:15:03;;;;;;;1.75;1.65;;;15.30;99.90;;;;;;4125467;28;20062;-67
2021/09/18 00:17:05;;;;;;;1.52;1.42;;;15.30;99.90;;;;;;4124550;28;20557;-66
2021/09/18 00:19:06;;;;;;;2.80;1.45;;;15.20;99.90;;;;;;4124850;28;20085;-65
2021/09/18 00:21:07;;;;;;;1.77;1.33;;;15.20;99.90;;;;;;4125707;28;20474;-65
2021/09/18 00:23:09;;;;;;;2.35;1.60;;;15.10;99.90;;;;;;4125244;28;20981;-66
2021/09/18 00:25:10;;;;;;;1.60;1.50;;;15.10;99.90;;;;;;4125760;28;20034;-65
2021/09/18 00:27:11;;;;;;;2.17;1.10;;;15.10;99.90;;;;;;4124834;28;20022;-67
2021/09/18 00:29:12;;;;;;;1.65;1.20;;;15.10;99.90;;;;;;4124490;28;20046;-66
2021/09/18 00:31:13;;;;;;;2.05;1.10;;;15.00;99.90;;;;;;4124649;28;20088;-65
2021/09/18 00:33:14;;;;;;;1.10;0.95;;;15.00;99.90;;;;;;4125192;28;20038;-67
2021/09/18 00:35:15;;;;;;;1.38;1.10;;;15.00;99.90;;;;;;4124316;28;20030;-65
2021/09/18 00:37:17;;;;;;;1.00;0.83;;;15.00;99.90;;;;;;4125243;28;20042;-65
2021/09/18 00:39:18;;;;;;;0.90;0.90;;;15.00;99.90;;;;;;4124587;28;20450;-66
2021/09/18 00:41:19;;;;;;;1.20;1.10;;;14.90;99.90;;;;;;4125319;28;20050;-65
2021/09/18 00:43:21;;;;;;;1.30;1.00;;;15.00;99.90;;;;;;4124406;28;20022;-67
2021/09/18 00:45:22;;;;;;;0.68;0.68;;;15.00;99.90;;;;;;4125508;28;20042;-66
2021/09/18 00:47:24;;;;;;;1.67;1.08;;;15.00;99.90;;;;;;4124873;28;20753;-65
2021/09/18 00:49:25;;;;;;;0.85;0.85;;;15.00;99.90;;;;;;4124807;28;20061;-65
2021/09/18 00:51:26;;;;;;;1.05;0.85;;;15.00;99.90;;;;;;4125298;28;20038;-66
2021/09/18 00:53:28;;;;;;;1.42;0.90;;;15.00;99.90;;;;;;4122791;28;20046;-67
2021/09/18 00:55:30;;;;;;;1.30;1.10;;;15.10;99.90;;;;;;4124681;28;20573;-66
2021/09/18 00:57:32;;;;;;;1.55;1.13;;;15.10;99.90;;;;;;4124104;28;20046;-66
2021/09/18 00:59:34;;;;;;;1.00;0.85;;;15.10;99.90;;;;;;4125240;28;20030;-68
2021/09/18 01:01:35;;;;;;;3.10;1.35;;;15.20;99.90;;;;;;4124518;28;20088;-66
2021/09/18 01:03:36;;;;;;;2.78;1.10;;;15.20;99.90;;;;;;4125205;28;20038;-67
2021/09/18 01:05:37;;;;;;;0.80;0.80;;;15.20;99.90;;;;;;4123525;28;20047;-65
2021/09/18 01:07:39;;;;;;;1.70;1.00;;;15.20;99.90;;;;;;4125745;28;20034;-66
2021/09/18 01:09:41;;;;;;;1.23;1.15;;;15.20;99.90;;;;;;4124023;28;20026;-65
2021/09/18 01:11:42;;;;;;;1.17;1.08;;;15.20;99.90;;;;;;4128167;28;20038;-66
2021/09/18 01:13:43;;;;;;;2.58;0.90;;;15.20;99.90;;;;;;4124442;28;20038;-65
2021/09/18 01:15:45;;;;;;;0.70;0.70;;;15.20;99.90;;;;;;4124655;28;20182;-66
2021/09/18 01:17:46;;;;;;;0.70;0.70;;;15.20;99.90;;;;;;4124135;28;20026;-66
2021/09/18 01:19:47;;;;;;;1.13;0.65;;;15.20;99.90;;;;;;4124512;28;20961;-66
2021/09/18 01:21:52;;;;;;;0.57;0.57;;;15.20;99.90;;;;;;4124089;28;20038;-67
2021/09/18 01:23:54;;;;;;;1.00;0.68;;;15.20;99.90;;;;;;4124438;28;20463;-66
2021/09/18 01:25:55;;;;;;;0.70;0.60;;;15.10;99.90;;;;;;4124579;28;20038;-65
2021/09/18 01:27:56;;;;;;;0.50;0.50;;;15.20;99.90;;;;;;4123853;28;20026;-65
2021/09/18 01:29:57;;;;;;;0.60;0.50;;;15.20;99.90;;;;;;4124823;28;20030;-67
2021/09/18 01:31:59;;;;;;;2.03;0.52;;;15.20;99.90;;;;;;4123714;28;20085;-65
2021/09/18 01:34:00;;;;;;;0.88;0.65;;;15.20;99.90;;;;;;4122249;28;20435;-66
2021/09/18 01:36:01;;;;;;;0.45;0.45;;;15.20;99.90;;;;;;4123417;28;20089;-70
2021/09/18 01:38:04;;;;;;;0.40;0.30;;;15.20;99.90;;;;;;4124671;28;20042;-65
2021/09/18 01:40:06;;;;;;;0.75;0.20;;;15.20;99.90;;;;;;4123328;28;20478;-65
2021/09/18 01:42:07;;;;;;;0.65;0.40;;;15.10;99.90;;;;;;4124965;28;20034;-65
2021/09/18 01:44:08;;;;;;;0.50;0.43;;;15.10;99.90;;;;;;4123316;28;20085;-66
2021/09/18 01:46:10;;;;;;;0.77;0.40;;;15.10;99.90;;;;;;4123806;28;20042;-66
2021/09/18 01:48:14;;;;;;;2.40;0.50;;;15.10;99.90;;;;;;4123369;28;20051;-65
2021/09/18 01:50:35;;;;;;;0.70;0.70;;;15.10;99.90;;;;;;4124194;28;20033;-67
2021/09/18 01:52:38;;;;;;;0.40;0.40;;;15.10;99.90;;;;;;4123518;28;20030;-65
2021/09/18 01:54:39;;;;;;;0.60;0.60;;;15.10;99.90;;;;;;4124573;28;20034;-66
2021/09/18 01:56:40;;;;;;;3.10;2.80;;;15.10;99.90;;;;;;4123127;28;20104;-66
2021/09/18 01:58:41;;;;;;;5.63;3.38;;;15.10;99.90;;;;;;4123517;28;20038;-66
2021/09/18 02:00:54;;;;;;;8.30;2.17;;;15.00;99.90;;;;;;4123911;28;20528;-66
2021/09/18 02:02:55;;;;;;;4.05;2.35;;;14.90;99.90;;;;;;4123768;28;20030;-65
2021/09/18 02:04:56;;;;;;;3.20;1.58;;;14.70;99.90;;;;;;4123730;28;20062;-66
2021/09/18 02:06:57;;;;;;;4.07;2.35;;;14.60;99.90;;;;;;4123251;28;20095;-65
2021/09/18 02:08:59;;;;;;;4.93;2.60;;;14.50;99.90;;;;;;4124093;28;20026;-65
2021/09/18 02:11:00;;;;;;;4.60;4.05;;;14.50;99.90;;;;;;4123136;28;20080;-66
2021/09/18 02:13:03;;;;;;;5.25;4.03;;;14.50;99.90;;;;;;4124200;28;20038;-66
2021/09/18 02:15:06;;;;;;;4.60;3.92;;;14.50;99.90;;;;;;4123193;28;20049;-67
2021/09/18 02:17:09;;;;;;;6.32;4.90;;;14.50;99.90;;;;;;4123903;28;20034;-65
2021/09/18 02:19:10;;;;;;;8.90;5.50;;;14.40;99.90;;;;;;4122838;28;20542;-65
2021/09/18 02:21:11;;;;;;;8.07;4.25;;;14.40;99.90;;;;;;4124093;28;20047;-66
2021/09/18 02:23:13;;;;;;;4.35;3.95;;;14.40;99.90;;;;;;4122905;28;20096;-66
2021/09/18 02:25:16;;;;;;;7.37;6.67;;;14.40;99.90;;;;;;4122819;28;20050;-66
2021/09/18 02:27:17;;;;;;;5.30;4.03;;;14.40;99.90;;;;;;4123546;28;20508;-66
2021/09/18 02:29:18;;;;;;;1.03;0.50;;;14.50;99.90;;;;;;4122561;28;20388;-66
2021/09/18 02:31:20;;;;;;;1.40;0.43;;;14.50;99.90;;;;;;4123567;28;20085;-70
2021/09/18 02:33:21;;;;;;;0.43;0.37;;;14.50;99.90;;;;;;4123351;28;20034;-67
2021/09/18 02:35:24;;;;;;;0.17;0.17;;;14.50;99.90;;;;;;4123042;28;20038;-66
2021/09/18 02:37:25;;;;;;;0.27;0.27;;;14.60;99.90;;;;;;4122965;28;20499;-65
2021/09/18 02:39:26;;;;;;;0.25;0.15;;;14.50;99.90;;;;;;4123887;28;20883;-65
2021/09/18 02:41:27;;;;;;;0.23;0.20;;;14.50;99.90;;;;;;4123136;28;20058;-66
2021/09/18 02:43:28;;;;;;;2.33;0.23;;;14.50;99.90;;;;;;4122281;28;20863;-66
2021/09/18 02:45:29;;;;;;;0.27;0.20;;;14.50;99.90;;;;;;4122316;28;20038;-65
2021/09/18 02:47:30;;;;;;;0.13;0.10;;;14.50;99.90;;;;;;4123957;28;20034;-65
2021/09/18 02:49:31;;;;;;;0.85;0.20;;;14.60;99.90;;;;;;4122708;28;20089;-66
2021/09/18 02:51:33;;;;;;;0.37;0.30;;;14.60;99.90;;;;;;4124159;28;20042;-65
2021/09/18 02:53:34;;;;;;;0.50;0.20;;;14.60;99.90;;;;;;4122668;28;20046;-65
2021/09/18 02:55:35;;;;;;;0.30;0.20;;;14.60;99.90;;;;;;4123956;28;20046;-65
2021/09/18 02:57:37;;;;;;;0.37;0.10;;;14.60;99.90;;;;;;4124213;28;20117;-65
2021/09/18 02:59:39;;;;;;;2.20;2.10;;;14.60;99.90;;;;;;4126716;28;20088;-64
2021/09/18 03:01:40;;;;;;;2.35;1.90;;;14.60;99.90;;;;;;4124738;28;20058;-65
2021/09/18 03:03:41;;;;;;;2.90;2.60;;;14.50;99.90;;;;;;4126006;28;20047;-64
2021/09/18 03:05:42;;;;;;;1.80;1.70;;;14.50;99.90;;;;;;4126292;28;20096;-64
2021/09/18 03:07:43;;;;;;;4.63;1.53;;;14.40;99.90;;;;;;4126457;28;20434;-64
2021/09/18 03:09:44;;;;;;;1.87;1.57;;;14.40;99.90;;;;;;4126715;28;20030;-66
2021/09/18 03:11:45;;;;;;;2.70;1.60;;;14.30;99.90;;;;;;4125811;28;20026;-66
2021/09/18 03:13:46;;;;;;;1.70;1.30;;;14.30;99.90;;;;;;4126221;28;20038;-65
2021/09/18 03:15:47;;;;;;;2.30;2.10;;;14.30;99.90;;;;;;4125798;28;20085;-68
2021/09/18 03:17:49;;;;;;;3.53;2.13;;;14.30;99.90;;;;;;4127128;28;20085;-65
2021/09/18 03:19:51;;;;;;;2.50;2.00;;;14.30;99.90;;;;;;4125465;28;20414;-65
2021/09/18 03:21:52;;;;;;;0.90;0.67;;;14.40;99.90;;;;;;4126821;28;20675;-65
2021/09/18 03:23:53;;;;;;;0.60;0.60;;;14.40;99.90;;;;;;4125709;28;20081;-64
2021/09/18 03:25:55;;;;;;;0.65;0.65;;;14.40;99.90;;;;;;4127047;28;20435;-67
2021/09/18 03:27:56;;;;;;;0.40;0.20;;;14.40;99.90;;;;;;4125782;28;20081;-64
2021/09/18 03:29:57;;;;;;;2.53;0.53;;;14.40;99.90;;;;;;4126815;28;20034;-65
2021/09/18 03:31:58;;;;;;;0.40;0.40;;;14.40;99.90;;;;;;4125189;28;20096;-64
2021/09/18 03:33:59;;;;;;;0.40;0.32;;;14.50;99.90;;;;;;4125967;28;20084;-65
2021/09/18 03:36:00;;;;;;;1.83;0.30;;;14.40;99.90;;;;;;4125674;28;20058;-65
2021/09/18 03:38:02;;;;;;;0.30;0.30;;;14.50;99.90;;;;;;4125966;28;20069;-65
2021/09/18 03:40:07;;;;;;;0.30;0.30;;;14.50;99.90;;;;;;4126017;28;20022;-65
2021/09/18 03:42:08;;;;;;;1.27;0.40;;;14.50;99.90;;;;;;4125595;28;20488;-65
2021/09/18 03:44:09;;;;;;;0.70;0.40;;;14.40;99.90;;;;;;4126156;28;20109;-65
2021/09/18 03:46:10;;;;;;;1.40;0.37;;;14.40;99.90;;;;;;4125070;28;20050;-65
2021/09/18 03:48:11;;;;;;;0.30;0.30;;;14.40;99.90;;;;;;4126324;28;20047;-65
2021/09/18 03:50:13;;;;;;;0.37;0.20;;;14.40;99.90;;;;;;4124983;28;20038;-65
2021/09/18 03:52:14;;;;;;;0.60;0.30;;;14.40;99.90;;;;;;4126190;28;20076;-65
2021/09/18 03:54:15;;;;;;;1.30;0.40;;;14.40;99.90;;;;;;4125440;28;20022;-66
2021/09/18 03:56:16;;;;;;;0.30;0.30;;;14.40;99.90;;;;;;4126523;28;20100;-65
2021/09/18 03:58:17;;;;;;;0.40;0.30;;;14.40;99.90;;;;;;4125049;28;20065;-66
2021/09/18 04:00:18;;;;;;;2.83;0.50;;;14.40;99.90;;;;;;4126123;28;20092;-65
2021/09/18 04:02:20;;;;;;;0.50;0.23;;;14.40;99.90;;;;;;4125188;28;20100;-65
2021/09/18 04:04:21;;;;;;;0.10;0.10;;;14.50;99.90;;;;;;4125837;28;20439;-65
2021/09/18 04:06:22;;;;;;;0.40;0.30;;;14.50;99.90;;;;;;4125035;28;20054;-66
2021/09/18 04:08:23;;;;;;;0.23;0.20;;;14.50;99.90;;;;;;4124615;28;20034;-65
2021/09/18 04:10:24;;;;;;;0.53;0.40;;;14.60;99.90;;;;;;4125809;28;20101;-66
2021/09/18 04:12:25;;;;;;;0.40;0.10;;;14.60;99.90;;;;;;4125241;28;20026;-65
2021/09/18 04:14:26;;;;;;;1.13;0.10;;;14.60;99.90;;;;;;4126217;28;20046;-65
2021/09/18 04:16:28;;;;;;;0.30;0.20;;;14.50;99.90;;;;;;4124734;28;20047;-66
2021/09/18 04:18:29;;;;;;;0.37;0.20;;;14.50;99.90;;;;;;4126197;28;20128;-65
2021/09/18 04:20:30;;;;;;;0.97;0.27;;;14.60;99.90;;;;;;4124595;28;20374;-65
2021/09/18 04:22:31;;;;;;;0.40;0.40;;;14.60;99.90;;;;;;4126088;28;20101;-65
2021/09/18 04:24:33;;;;;;;0.63;0.40;;;14.60;99.90;;;;;;4124999;28;20034;-65
2021/09/18 04:26:34;;;;;;;0.50;0.20;;;14.60;99.90;;;;;;4125630;28;20030;-65
2021/09/18 04:28:35;;;;;;;1.20;0.40;;;14.60;99.90;;;;;;4124565;28;20043;-65
2021/09/18 04:30:36;;;;;;;1.00;0.38;;;14.70;99.90;;;;;;4125604;28;20479;-66
2021/09/18 04:32:37;;;;;;;0.60;0.60;;;14.60;99.90;;;;;;4124558;28;20034;-65
2021/09/18 04:34:38;;;;;;;1.67;0.40;;;14.60;99.90;;;;;;4125051;28;20093;-66
2021/09/18 04:36:40;;;;;;;0.83;0.83;;;14.50;99.90;;;;;;4124941;28;20466;-66
2021/09/18 04:38:41;;;;;;;1.63;1.00;;;14.40;99.90;;;;;;4124672;28;20104;-66
2021/09/18 04:40:42;;;;;;;0.90;0.90;;;14.40;99.90;;;;;;4123488;28;20086;-65
2021/09/18 04:42:43;;;;;;;1.58;1.48;;;14.50;99.90;;;;;;4124540;28;20489;-67
2021/09/18 04:44:44;;;;;;;2.37;1.80;;;14.50;99.90;;;;;;4125581;28;20038;-65
2021/09/18 04:46:46;;;;;;;2.00;1.80;;;14.50;99.90;;;;;;4124147;28;20022;-65
2021/09/18 04:48:47;;;;;;;1.90;1.70;;;14.40;99.90;;;;;;4125400;28;20093;-65
2021/09/18 04:50:48;;;;;;;3.50;2.20;;;14.40;99.90;;;;;;4123333;28;20050;-66
2021/09/18 04:52:49;;;;;;;1.83;1.73;;;14.40;99.90;;;;;;4125096;28;20050;-66
2021/09/18 04:54:53;;;;;;;2.83;1.77;;;14.40;99.90;;;;;;4124216;28;20026;-65
2021/09/18 04:56:54;;;;;;;3.20;2.13;;;14.40;99.90;;;;;;4125250;28;20034;-65
2021/09/18 04:58:55;;;;;;;6.47;2.00;;;14.40;99.90;;;;;;4123743;28;20530;-65
2021/09/18 05:00:57;;;;;;;3.00;2.07;;;14.40;99.90;;;;;;4125191;28;20108;-66
2021/09/18 05:02:58;;;;;;;3.47;2.17;;;14.40;99.90;;;;;;4124183;28;20031;-66
2021/09/18 05:04:59;;;;;;;2.93;2.53;;;14.40;99.90;;;;;;4124677;28;20085;-66
2021/09/18 05:07:00;;;;;;;4.77;2.70;;;14.30;99.90;;;;;;4124195;28;20077;-66
2021/09/18 05:09:02;;;;;;;5.40;2.70;;;14.30;99.90;;;;;;4124358;28;20084;-67
2021/09/18 05:11:03;;;;;;;5.93;3.10;;;14.30;99.90;;;;;;4124706;28;20088;-65
2021/09/18 05:13:04;;;;;;;4.50;3.03;;;14.30;99.90;;;;;;4123833;28;20089;-64
2021/09/18 05:15:07;;;;;;;3.47;2.97;;;14.30;99.90;;;;;;4124206;28;20550;-64
2021/09/18 05:17:08;;;;;;;3.63;2.97;;;14.20;99.90;;;;;;4123907;28;20419;-65
2021/09/18 05:19:10;;;;;;;4.50;3.00;;;14.20;99.90;;;;;;4128756;28;20536;-65
2021/09/18 05:21:11;;;;;;;3.15;2.83;;;14.30;99.90;;;;;;4138596;28;20057;-64
2021/09/18 05:23:12;;;;;;;4.38;3.30;;;14.30;99.90;;;;;;4140879;28;20414;-64
2021/09/18 05:25:13;;;;;;;4.32;3.20;;;14.30;99.90;;;;;;4139647;28;20560;-66
2021/09/18 05:27:14;;;;;;;4.67;2.80;;;14.30;99.90;;;;;;4140987;28;20030;-65
2021/09/18 05:29:15;;;;;;;7.07;3.77;;;14.30;99.90;;;;;;4139042;28;20033;-66
2021/09/18 05:31:16;;;;;;;4.30;3.10;;;14.40;99.90;;;;;;4140349;28;20704;-67
2021/09/18 05:33:17;;;;;;;3.50;3.10;;;14.30;99.90;;;;;;4139333;28;20038;-67
2021/09/18 05:35:18;;;;;;;7.87;3.87;;;14.30;99.90;;;;;;4140650;28;20034;-68
2021/09/18 05:37:20;;;;;;;16.75;4.35;;;14.40;99.90;;;;;;4139810;28;20092;-67
2021/09/18 05:39:21;;;;;;;6.13;3.50;;;14.40;99.90;;;;;;4140165;28;20046;-66
2021/09/18 05:41:22;;;;;;;6.30;3.30;;;14.40;99.90;;;;;;4139976;28;20042;-66
2021/09/18 05:43:23;;;;;;;3.43;2.30;;;14.40;99.90;;;;;;4139726;28;20065;-66
2021/09/18 05:45:24;;;;;;;4.50;3.30;;;14.40;99.90;;;;;;4140383;28;20099;-64
2021/09/18 05:47:25;;;;;;;16.50;6.63;;;14.40;99.90;;;;;;4138843;28;20502;-65
2021/09/18 05:49:27;;;;;;;4.70;3.70;;;14.40;99.90;;;;;;4140104;28;20030;-66
2021/09/18 05:51:29;;;;;;;5.57;3.77;;;14.40;99.90;;;;;;4138683;28;20034;-68
2021/09/18 05:53:31;;;;;;;4.75;4.32;;;14.30;99.90;;;;;;4140348;28;20072;-67
2021/09/18 05:55:32;;;;;;;5.47;4.10;;;14.30;99.90;;;;;;4139541;28;20084;-66
2021/09/18 05:57:33;;;;;;;4.50;4.10;;;14.40;99.90;;;;;;4140387;28;20501;-65
2021/09/18 05:59:34;;;;;;;23.10;8.87;;;14.30;99.90;;;;;;4139178;28;20076;-65
2021/09/18 06:01:35;;;;;;;6.50;4.90;;;14.30;99.90;;;;;;4140402;28;20672;-66
2021/09/18 06:03:36;;;;;;;7.68;5.20;;;14.30;99.90;;;;;;4139109;28;20092;-66
2021/09/18 06:05:37;;;;;;;6.00;4.80;;;14.30;99.90;;;;;;4139725;28;20054;-66
2021/09/18 06:07:39;;;;;;;12.23;7.47;;;14.40;99.90;;;;;;4139277;28;20042;-66
2021/09/18 06:09:40;;;;;;;10.17;5.90;;;14.50;99.90;;;;;;4139602;28;20464;-69
2021/09/18 06:11:41;;;;;;;7.60;5.60;;;14.60;99.90;;;;;;4139006;28;20022;-65
2021/09/18 06:13:42;;;;;;;6.15;5.15;;;14.60;99.90;;;;;;4139226;28;20030;-66
2021/09/18 06:15:43;;;;;;;10.13;6.53;;;14.70;99.90;;;;;;4139507;28;20120;-66
2021/09/18 06:17:44;;;;;;;10.17;6.77;;;14.60;99.90;;;;;;4138957;28;20498;-66
2021/09/18 06:19:45;;;;;;;10.32;6.30;;;14.60;99.90;;;;;;4139218;28;20028;-67
2021/09/18 06:21:47;;;;;;;7.25;5.70;;;14.60;99.90;;;;;;4139154;28;20037;-66
2021/09/18 06:23:48;;;;;;;6.65;5.47;;;14.60;99.90;;;;;;4140392;28;20781;-68
2021/09/18 06:25:49;;;;;;;6.63;4.97;;;14.60;99.90;;;;;;4138881;28;20426;-66
2021/09/18 06:27:50;;;;;;;8.18;6.25;;;14.50;99.90;;;;;;4140096;28;20056;-68
2021/09/18 06:29:51;;;;;;;6.47;5.13;;;14.50;99.90;;;;;;4138661;28;20042;-66
2021/09/18 06:31:52;;;;;;;8.70;6.40;;;14.50;99.90;;;;;;4139515;28;20076;-66
2021/09/18 06:33:54;;;;;;;7.18;6.05;;;14.60;99.90;;;;;;4137124;28;20049;-66
2021/09/18 06:35:56;;;;;;;8.50;6.05;;;14.60;99.90;;;;;;4123670;28;20049;-66
2021/09/18 06:37:57;;;;;;;9.57;6.93;;;14.70;99.90;;;;;;4137955;28;20041;-66
2021/09/18 06:39:58;;;;;;;9.35;6.50;;;14.80;99.90;;;;;;4139760;28;20029;-67
2021/09/18 06:42:00;;;;;;;10.27;6.40;;;14.90;99.90;;;;;;4138250;28;20100;-67
2021/09/18 06:44:01;;;;;;;7.13;6.10;;;15.20;99.90;;;;;;4138124;28;20080;-66
2021/09/18 06:46:02;;;;;;;28.85;13.82;;;15.40;99.90;;;;;;4139485;28;20673;-66
2021/09/18 06:48:03;;;;;;;19.88;9.43;;;15.50;99.90;;;;;;4138460;28;20026;-65
2021/09/18 06:50:06;;;;;;;7.50;6.65;;;15.60;99.90;;;;;;4139246;28;20030;-65
2021/09/18 06:52:07;;;;;;;9.05;7.20;;;15.70;99.90;;;;;;4137870;28;20083;-66
2021/09/18 06:54:08;;;;;;;15.32;7.63;;;15.70;99.90;;;;;;4139311;28;20080;-66
2021/09/18 06:56:10;;;;;;;7.80;6.55;;;15.70;99.90;;;;;;4138644;28;20088;-66
2021/09/18 06:58:11;;;;;;;11.00;7.28;;;15.70;99.90;;;;;;4137724;28;20092;-66
2021/09/18 07:00:12;;;;;;;13.57;7.38;;;15.70;99.90;;;;;;4138169;28;20057;-66
2021/09/18 07:02:14;;;;;;;11.27;6.93;;;15.70;99.90;;;;;;4139700;28;20041;-66
2021/09/18 07:04:15;;;;;;;9.80;7.43;;;15.70;99.90;;;;;;4137898;28;20099;-66
2021/09/18 07:06:16;;;;;;;9.80;7.22;;;15.60;99.90;;;;;;4138997;28;20092;-67
2021/09/18 07:08:17;;;;;;;9.15;7.20;;;15.60;99.90;;;;;;4138073;28;20096;-67
2021/09/18 07:10:19;;;;;;;8.35;6.72;;;15.50;99.90;;;;;;4138078;28;20533;-65
2021/09/18 07:12:20;;;;;;;8.07;6.47;;;15.40;99.90;;;;;;4138526;28;20425;-66
2021/09/18 07:14:21;;;;;;;9.07;7.15;;;15.40;99.90;;;;;;4138465;28;20038;-67
2021/09/18 07:16:23;;;;;;;9.13;6.70;;;15.40;99.90;;;;;;4139044;28;20034;-66
2021/09/18 07:18:24;;;;;;;8.80;7.03;;;15.40;99.90;;;;;;4138015;28;20084;-68
2021/09/18 07:20:25;;;;;;;7.38;6.57;;;15.40;99.90;;;;;;4138264;28;20065;-67
2021/09/18 07:22:27;;;;;;;7.32;6.60;;;15.50;99.90;;;;;;4136303;28;20045;-66
2021/09/18 07:24:32;;;;;;;8.52;6.43;;;15.50;99.90;;;;;;4139148;28;20034;-65
2021/09/18 07:26:34;;;;;;;7.15;6.20;;;15.50;99.90;;;;;;4137545;28;20112;-64
2021/09/18 07:28:35;;;;;;;11.75;6.30;;;15.40;99.90;;;;;;4138801;28;20433;-65
2021/09/18 07:30:36;;;;;;;9.70;6.95;;;15.40;99.90;;;;;;4137959;28;20536;-64
2021/09/18 07:32:38;;;;;;;11.13;7.00;;;15.50;99.90;;;;;;4137300;28;20038;-65
2021/09/18 07:34:40;;;;;;;10.25;6.65;;;15.50;99.90;;;;;;4137469;28;20050;-66
2021/09/18 07:36:41;;;;;;;7.80;6.45;;;15.60;99.90;;;;;;4137311;28;20104;-65
2021/09/18 07:38:42;;;;;;;9.30;6.07;;;15.60;99.90;;;;;;4138182;28;20919;-65
2021/09/18 07:40:43;;;;;;;8.93;6.35;;;15.60;99.90;;;;;;4138625;28;20034;-65
2021/09/18 07:42:44;;;;;;;9.20;6.20;;;15.70;99.90;;;;;;4138483;28;20033;-63
2021/09/18 07:44:46;;;;;;;8.27;6.60;;;15.70;99.90;;;;;;4141008;28;20447;-66
2021/09/18 07:46:47;;;;;;;14.80;6.03;;;15.70;99.90;;;;;;4141631;28;20029;-64
2021/09/18 07:48:48;;;;;;;7.13;5.07;;;15.80;99.90;;;;;;4141335;28;20026;-66
2021/09/18 07:50:50;;;;;;;7.03;5.05;;;15.80;99.90;;;;;;4142135;28;20442;-66
2021/09/18 07:52:51;;;;;;;6.28;4.85;;;15.90;99.90;;;;;;4141088;28;20033;-63
2021/09/18 07:54:52;;;;;;;6.57;5.88;;;16.00;99.90;;;;;;4141071;28;20096;-65
2021/09/18 07:56:53;;;;;;;6.05;4.85;;;16.10;99.90;;;;;;4141479;28;20038;-63
2021/09/18 07:58:57;;;;;;;6.22;4.88;;;16.20;99.90;;;;;;4141349;28;20092;-63
2021/09/18 08:00:58;;;;;;;6.20;5.07;;;16.20;99.90;;;;;;4140570;28;20026;-65
2021/09/18 08:02:59;;;;;;;4.45;4.00;;;16.20;99.90;;;;;;4141967;28;20041;-67
2021/09/18 08:05:02;;;;;;;8.30;4.97;;;16.30;99.90;;;;;;4140371;28;20833;-63
2021/09/18 08:07:04;;;;;;;5.50;4.47;;;16.50;99.90;;;;;;4141570;28;20563;-63
2021/09/18 08:09:06;;;;;;;4.97;3.38;;;16.70;99.90;;;;;;4141094;28;20037;-66
2021/09/18 08:11:07;;;;;;;4.70;3.85;;;17.00;99.90;;;;;;4141235;28;20029;-65
2021/09/18 08:13:09;;;;;;;5.47;4.18;;;17.10;99.90;;;;;;4141077;28;20740;-63
2021/09/18 08:15:10;;;;;;;6.80;4.03;;;17.20;99.90;;;;;;4141417;28;20359;-67
2021/09/18 08:17:12;;;;;;;4.97;3.80;;;17.20;99.90;;;;;;4140566;28;20029;-66
2021/09/18 08:19:13;;;;;;;5.60;3.90;;;17.20;99.90;;;;;;4138430;28;20092;-65
2021/09/18 08:21:14;;;;;;;5.90;3.90;;;17.30;99.90;;;;;;4140947;28;20092;-67
2021/09/18 08:23:15;;;;;;;7.45;6.05;;;17.40;99.90;;;;;;4139931;28;20073;-68
2021/09/18 08:25:16;;;;;;;3.92;3.53;;;17.40;99.90;;;;;;4141591;28;20076;-67
2021/09/18 08:27:18;;;;;;;4.88;3.50;;;17.30;99.90;;;;;;4140542;28;20088;-67
2021/09/18 08:29:19;;;;;;;4.80;3.55;;;17.20;99.90;;;;;;4141443;28;20418;-69
2021/09/18 08:31:20;;;;;;;8.73;4.18;;;17.10;99.90;;;;;;4140060;28;20091;-67
2021/09/18 08:33:21;;;;;;;6.13;3.60;;;17.10;99.90;;;;;;4140347;28;20045;-69
2021/09/18 08:35:22;;;;;;;5.13;3.53;;;17.20;99.90;;;;;;4139669;28;20038;-67
2021/09/18 08:37:23;;;;;;;5.00;3.80;;;17.30;99.90;;;;;;4140998;28;20026;-67
2021/09/18 08:39:24;;;;;;;3.97;3.50;;;17.40;99.90;;;;;;4140061;28;20399;-64
2021/09/18 08:41:26;;;;;;;4.50;3.60;;;17.50;99.90;;;;;;4140435;28;20034;-66
2021/09/18 08:43:27;;;;;;;5.68;3.92;;;17.70;99.90;;;;;;4140186;28;20092;-66
2021/09/18 08:45:28;;;;;;;4.88;3.72;;;18.00;99.90;;;;;;4140245;28;20440;-70
2021/09/18 08:47:30;;;;;;;4.63;3.72;;;18.30;99.90;;;;;;4140159;28;20030;-73
2021/09/18 08:49:32;;;;;;;5.03;3.72;;;18.50;99.90;;;;;;4139294;28;20147;-69
2021/09/18 08:51:34;;;;;;;3.75;3.45;;;18.60;99.90;;;;;;4140454;28;20121;-66
2021/09/18 08:53:36;;;;;;;4.10;2.88;;;18.90;99.90;;;;;;4139579;28;20061;-66
2021/09/18 08:55:37;;;;;;;3.15;2.80;;;19.10;99.90;;;;;;4141051;28;20050;-70
2021/09/18 08:57:39;;;;;;;3.30;3.00;;;19.10;99.90;;;;;;4139905;28;20034;-65
2021/09/18 08:59:41;;;;;;;3.08;2.50;;;19.20;99.90;;;;;;4141094;28;20561;-66
2021/09/18 09:01:42;;;;;;;4.07;3.38;;;19.20;99.90;;;;;;4138837;28;20045;-63
2021/09/18 09:03:43;;;;;;;3.55;2.63;;;19.40;99.90;;;;;;4140643;28;20049;-64
2021/09/18 09:05:45;;;;;;;186.38;119.13;;;19.50;99.90;;;;;;4138873;28;20054;-63
2021/09/18 09:08:14;;;;;;;6.97;3.70;;;19.40;99.90;;;;;;4140860;28;20038;-67
2021/09/18 09:10:15;;;;;;;5.78;4.47;;;18.90;99.90;;;;;;4139892;28;20030;-64
2021/09/18 09:12:32;;;;;;;6.25;4.53;;;18.40;99.90;;;;;;4139494;28;20026;-66
2021/09/18 09:14:43;;;;;;;4.68;4.20;;;17.90;99.90;;;;;;4123369;28;20097;-65
2021/09/18 09:17:04;;;;;;;7.80;3.90;;;17.80;99.90;;;;;;4124257;28;20026;-65
2021/09/18 09:19:15;;;;;;;5.18;4.30;;;17.90;99.90;;;;;;4122482;28;20050;-64
2021/09/18 09:21:18;;;;;;;17.77;5.47;;;17.90;99.90;;;;;;4124465;28;20050;-68
2021/09/18 09:23:21;;;;;;;17.67;5.68;;;18.00;99.90;;;;;;4131312;28;20038;-66
2021/09/18 09:25:53;;;;;;;8.70;4.55;;;18.10;99.90;;;;;;4140469;28;20034;-66
2021/09/18 09:27:56;;;;;;;6.50;4.00;;;18.20;99.90;;;;;;4136356;28;20584;-64
2021/09/18 09:29:57;;;;;;;3.03;2.67;;;18.20;99.90;;;;;;4140356;28;20080;-70
2021/09/18 09:31:58;;;;;;;3.30;2.85;;;18.30;99.90;;;;;;4139190;28;20057;-66
2021/09/18 09:34:07;;;;;;;6.97;3.17;;;18.30;99.90;;;;;;4139688;28;20034;-65
2021/09/18 09:36:16;;;;;;;8.10;3.20;;;18.50;99.90;;;;;;4139103;28;20464;-69
2021/09/18 09:38:17;;;;;;;10.98;5.70;;;18.50;99.90;;;;;;4140679;28;20022;-69
2021/09/18 09:40:31;;;;;;;6.38;4.20;;;18.60;99.90;;;;;;4137912;28;20455;-70
2021/09/18 09:42:35;;;;;;;4.35;3.80;;;18.60;99.90;;;;;;4139038;28;20045;-70
2021/09/18 09:44:36;;;;;;;5.97;4.45;;;18.60;99.90;;;;;;4138808;28;20092;-69
2021/09/18 09:46:37;;;;;;;5.20;3.90;;;18.70;99.90;;;;;;4139600;28;20042;-70
2021/09/18 09:48:38;;;;;;;5.05;3.88;;;18.80;99.90;;;;;;4137054;28;20030;-70
2021/09/18 09:50:55;;;;;;;5.30;4.28;;;18.80;99.90;;;;;;4139176;28;20042;-70
2021/09/18 09:52:56;;;;;;;6.45;4.15;;;18.70;99.90;;;;;;4138634;28;20616;-69
2021/09/18 09:55:10;;;;;;;5.07;3.75;;;18.90;99.90;;;;;;4140218;28;20037;-71
2021/09/18 09:57:13;;;;;;;6.03;3.75;;;19.00;99.90;;;;;;4138885;28;20043;-69
2021/09/18 09:59:27;;;;;;;8.98;6.25;;;19.10;99.90;;;;;;4139857;28;20021;-69
2021/09/18 10:01:28;;;;;;;5.72;3.65;;;19.40;99.90;;;;;;4139133;28;20037;-69
2021/09/18 10:03:30;;;;;;;4.63;3.10;;;19.40;99.90;;;;;;4139674;28;20509;-70
2021/09/18 10:05:31;;;;;;;9.90;4.57;;;19.40;99.90;;;;;;4138804;28;20053;-70
2021/09/18 10:07:33;;;;;;;4.35;2.53;;;19.40;99.90;;;;;;4139123;28;20068;-68
2021/09/18 10:09:35;;;;;;;5.60;3.92;;;19.40;99.90;;;;;;4139281;28;20442;-68
2021/09/18 10:11:36;;;;;;;4.30;3.90;;;19.40;99.90;;;;;;4138634;28;20080;-67
2021/09/18 10:13:40;;;;;;;5.35;3.22;;;19.40;99.90;;;;;;4139527;28;20112;-68
2021/09/18 10:15:44;;;;;;;4.47;2.95;;;19.30;99.90;;;;;;4138868;28;20042;-70
2021/09/18 10:17:48;;;;;;;4.60;2.97;;;19.00;99.90;;;;;;4139475;28;20092;-73
2021/09/18 10:24:11;;;;;;;3.67;2.50;;;18.90;99.90;;;;;;4138336;28;20076;-70
2021/09/18 10:26:14;;;;;;;4.97;4.30;;;18.90;99.90;;;;;;4140245;28;20038;-70
2021/09/18 10:28:29;;;;;;;5.20;4.50;;;19.00;99.90;;;;;;4138533;28;20018;-73
2021/09/18 10:30:38;;;;;;;5.70;4.38;;;19.00;99.90;;;;;;4139785;28;20084;-70
2021/09/18 10:32:46;;;;;;;4.20;3.67;;;19.20;99.90;;;;;;4138728;28;20605;-75
2021/09/18 10:34:48;;;;;;;3.67;3.38;;;19.30;99.90;;;;;;4137977;28;20077;-69
2021/09/18 10:36:49;;;;;;;4.32;2.88;;;19.20;99.90;;;;;;4137878;28;20092;-69
2021/09/18 10:39:08;;;;;;;3.28;2.60;;;19.00;99.90;;;;;;4137556;28;20101;-70